Time;durP1;ratioP1;P1;durP2;ratioP2;P2;SDS_P1;SDS_P2;PMS_P1;PMS_P2;Temp;Humidity;BMP_temperature;BMP_pressure;BME280_temperature;BME280_humidity;BME280_pressure;Samples;Min_cycle;Max_cycle;Signal;HPM_P1;HPM_P2
2021/06/06 00:00:13;;;;;;;13.05;10.60;;;;;;;15.51;98.05;96655.47;5022762;28;20115;-80
2021/06/06 00:02:38;;;;;;;13.00;10.88;;;;;;;15.45;98.24;96664.13;5004298;28;20050;-79
2021/06/06 00:05:05;;;;;;;14.43;11.95;;;;;;;15.36;98.89;96666.03;5018590;28;20033;-80
2021/06/06 00:07:32;;;;;;;14.57;11.57;;;;;;;15.36;99.03;96657.22;5026822;28;20122;-79
2021/06/06 00:09:58;;;;;;;15.10;11.45;;;;;;;15.39;98.94;96662.19;5020695;28;20026;-80
2021/06/06 00:12:25;;;;;;;14.40;10.93;;;;;;;15.37;99.22;96659.72;5027716;28;20037;-80
2021/06/06 00:14:51;;;;;;;15.98;12.43;;;;;;;15.45;98.90;96659.63;4998911;28;20042;-80
2021/06/06 00:17:16;;;;;;;15.60;12.13;;;;;;;15.46;98.73;96665.75;5016913;28;20037;-80
2021/06/06 00:19:42;;;;;;;15.50;12.30;;;;;;;15.41;99.12;96657.53;5011105;28;20510;-79
2021/06/06 00:22:09;;;;;;;15.93;13.10;;;;;;;15.40;99.15;96653.25;5023906;28;20040;-80
2021/06/06 00:24:36;;;;;;;16.52;13.52;;;;;;;15.33;99.11;96656.59;5011796;28;21081;-79
2021/06/06 00:27:04;;;;;;;19.15;14.63;;;;;;;15.29;99.24;96665.91;5018109;28;20637;-79
2021/06/06 00:29:30;;;;;;;20.63;15.95;;;;;;;15.16;100.00;96660.41;5015697;28;20026;-79
2021/06/06 00:31:56;;;;;;;19.58;15.50;;;;;;;15.23;100.00;96656.03;5024939;28;20365;-79
2021/06/06 00:34:23;;;;;;;21.83;17.42;;;;;;;15.16;100.00;96657.75;5015623;28;20046;-79
2021/06/06 00:36:50;;;;;;;22.00;18.23;;;;;;;15.19;100.00;96657.41;5015138;28;20030;-80
2021/06/06 00:39:18;;;;;;;23.52;17.75;;;;;;;15.18;100.00;96661.03;5033743;28;20574;-80
2021/06/06 00:41:47;;;;;;;25.13;18.45;;;;;;;15.13;100.00;96663.41;5011750;28;20037;-80
2021/06/06 00:44:16;;;;;;;25.05;20.17;;;;;;;15.19;100.00;96659.19;4995567;28;20018;-80
2021/06/06 00:46:44;;;;;;;25.77;21.38;;;;;;;15.11;100.00;96662.75;4969745;28;20109;-79
2021/06/06 00:49:13;;;;;;;29.60;21.98;;;;;;;15.12;100.00;96666.19;5012474;28;20026;-80
2021/06/06 00:51:45;;;;;;;29.27;21.42;;;;;;;15.08;100.00;96660.44;5015239;28;20060;-79
2021/06/06 00:54:16;;;;;;;41.70;25.85;;;;;;;15.01;100.00;96657.66;5000133;28;20033;-80
2021/06/06 00:56:45;;;;;;;29.13;23.58;;;;;;;15.01;100.00;96662.97;5002642;28;20030;-80
2021/06/06 00:59:15;;;;;;;31.23;23.95;;;;;;;14.92;100.00;96663.19;5012687;28;20022;-80
2021/06/06 01:01:40;;;;;;;29.55;22.92;;;;;;;14.94;100.00;96656.72;5000018;28;20096;-80
2021/06/06 01:04:07;;;;;;;28.33;21.70;;;;;;;14.89;100.00;96659.09;4999739;28;20080;-79
2021/06/06 01:06:42;;;;;;;25.30;20.95;;;;;;;14.88;100.00;96657.44;5014707;28;20033;-79
2021/06/06 01:09:13;;;;;;;27.60;21.40;;;;;;;14.88;100.00;96660.06;4997463;28;20026;-79
2021/06/06 01:11:44;;;;;;;29.90;22.88;;;;;;;14.91;100.00;96666.84;5018614;28;20034;-79
2021/06/06 01:14:21;;;;;;;29.95;22.20;;;;;;;15.00;100.00;96660.50;5002183;28;20034;-80
2021/06/06 01:17:01;;;;;;;32.30;23.95;;;;;;;14.78;100.00;96665.59;5009740;28;20108;-80
2021/06/06 01:19:34;;;;;;;30.83;23.45;;;;;;;14.79;100.00;96661.97;4997478;28;20022;-80
2021/06/06 01:22:22;;;;;;;41.33;23.47;;;;;;;14.76;100.00;96659.66;4997570;28;20038;-80
2021/06/06 01:24:56;;;;;;;56.88;24.02;;;;;;;14.88;100.00;96652.13;5040634;28;20132;-79
2021/06/06 01:27:29;;;;;;;30.70;21.25;;;;;;;14.77;100.00;96645.44;5001929;28;20037;-79
2021/06/06 01:30:17;;;;;;;27.50;16.40;;;;;;;14.65;100.00;96651.28;4986791;28;20062;-80
2021/06/06 01:33:00;;;;;;;45.10;25.13;;;;;;;14.51;100.00;96652.84;4988582;28;20045;-79
2021/06/06 01:35:36;;;;;;;30.58;23.23;;;;;;;14.63;100.00;96643.53;5006109;28;20086;-80
2021/06/06 01:38:11;;;;;;;33.17;23.87;;;;;;;14.66;100.00;96651.13;4989703;28;20038;-80
2021/06/06 01:40:39;;;;;;;27.05;22.70;;;;;;;14.64;100.00;96653.13;5012039;28;20431;-79
2021/06/06 01:43:15;;;;;;;44.85;23.58;;;;;;;14.61;100.00;96645.50;5010886;28;20034;-79
2021/06/06 01:45:57;;;;;;;49.57;23.20;;;;;;;14.61;100.00;96643.69;5005057;28;20124;-80
2021/06/06 01:48:25;;;;;;;35.00;23.08;;;;;;;14.58;100.00;96643.22;4996301;28;20038;-79
2021/06/06 01:51:11;;;;;;;41.92;22.40;;;;;;;14.49;100.00;96649.53;5009886;28;20041;-78
2021/06/06 01:53:41;;;;;;;44.90;23.07;;;;;;;14.50;100.00;96649.38;5016399;28;20037;-79
2021/06/06 01:56:08;;;;;;;45.60;22.73;;;;;;;14.45;100.00;96637.63;5008750;28;20038;-79
2021/06/06 01:58:48;;;;;;;38.15;22.05;;;;;;;14.41;100.00;96644.28;5010020;28;20029;-79
2021/06/06 02:01:22;;;;;;;53.13;22.90;;;;;;;14.34;100.00;96639.66;5010745;28;20041;-80
2021/06/06 02:03:54;;;;;;;55.15;22.25;;;;;;;14.37;100.00;96635.88;5007026;28;20038;-80
2021/06/06 02:06:31;;;;;;;40.72;22.35;;;;;;;14.40;100.00;96640.81;4991223;28;20112;-79
2021/06/06 02:08:58;;;;;;;51.40;22.40;;;;;;;14.37;100.00;96639.31;5008779;28;20033;-80
2021/06/06 02:11:42;;;;;;;43.30;20.95;;;;;;;14.36;100.00;96637.69;5005690;28;20446;-80
2021/06/06 02:14:19;;;;;;;30.00;21.30;;;;;;;14.37;100.00;96630.56;5020551;28;20040;-79
2021/06/06 02:16:55;;;;;;;29.07;20.57;;;;;;;14.37;100.00;96635.88;5016785;28;20466;-80
2021/06/06 02:19:42;;;;;;;45.33;22.77;;;;;;;14.23;100.00;96637.41;5012421;28;20391;-80
2021/06/06 02:22:17;;;;;;;43.30;21.57;;;;;;;14.29;100.00;96631.44;4997088;28;20034;-80
2021/06/06 02:24:44;;;;;;;26.50;21.00;;;;;;;14.33;100.00;96639.84;5006415;28;20036;-79
2021/06/06 02:27:29;;;;;;;40.73;21.93;;;;;;;14.32;100.00;96631.09;5018390;28;20029;-79
2021/06/06 02:30:09;;;;;;;33.77;22.00;;;;;;;14.35;100.00;96635.19;4998614;28;20030;-78
2021/06/06 02:32:56;;;;;;;42.17;21.48;;;;;;;14.38;100.00;96634.84;5012054;28;20503;-79
2021/06/06 02:35:36;;;;;;;26.33;19.50;;;;;;;14.27;100.00;96636.06;4998643;28;20590;-79
2021/06/06 02:38:27;;;;;;;33.37;20.40;;;;;;;14.29;100.00;96639.38;4994010;28;20392;-80
2021/06/06 02:41:14;;;;;;;32.17;21.33;;;;;;;14.23;100.00;96637.41;5008477;28;20454;-79
2021/06/06 02:44:14;;;;;;;29.17;20.93;;;;;;;14.26;100.00;96637.06;5000145;28;20029;-79
2021/06/06 02:46:58;;;;;;;29.03;19.87;;;;;;;14.21;100.00;96630.63;5009358;28;20041;-80
2021/06/06 02:49:34;;;;;;;30.98;20.45;;;;;;;14.20;100.00;96634.28;5006153;28;20048;-79
2021/06/06 02:52:12;;;;;;;27.07;20.93;;;;;;;14.21;100.00;96631.47;5000345;28;20035;-79
2021/06/06 02:54:52;;;;;;;32.30;19.40;;;;;;;14.19;100.00;96625.53;5020831;28;20030;-80
2021/06/06 02:57:29;;;;;;;29.83;21.07;;;;;;;14.27;100.00;96627.31;5014961;28;20030;-80
2021/06/06 03:00:21;;;;;;;25.50;20.43;;;;;;;14.35;100.00;96622.81;5014898;28;20022;-79
2021/06/06 03:02:59;;;;;;;25.33;20.58;;;;;;;14.23;100.00;96616.25;5014191;28;20624;-79
2021/06/06 03:05:29;;;;;;;25.53;18.83;;;;;;;14.28;100.00;96624.47;5038871;28;20041;-77
2021/06/06 03:08:01;;;;;;;24.67;19.92;;;;;;;14.25;100.00;96616.06;5006413;28;20041;-75
2021/06/06 03:10:33;;;;;;;24.53;20.40;;;;;;;14.24;100.00;96619.72;5003746;28;20037;-76
2021/06/06 03:13:14;;;;;;;23.73;18.67;;;;;;;14.22;100.00;96622.56;5014389;28;20109;-77
2021/06/06 03:15:46;;;;;;;26.47;19.67;;;;;;;14.20;100.00;96621.88;5020145;28;20026;-77
2021/06/06 03:18:16;;;;;;;25.45;19.42;;;;;;;14.24;100.00;96628.47;5020578;28;20049;-76
2021/06/06 03:20:45;;;;;;;21.77;18.30;;;;;;;14.31;100.00;96626.78;5017930;28;20372;-77
2021/06/06 03:23:21;;;;;;;27.30;20.23;;;;;;;14.23;100.00;96631.31;5009372;28;20030;-75
2021/06/06 03:25:59;;;;;;;24.63;19.30;;;;;;;14.26;100.00;96623.84;5024754;28;20040;-77
2021/06/06 03:28:32;;;;;;;27.90;18.90;;;;;;;14.21;100.00;96628.81;5001957;28;20587;-76
2021/06/06 03:31:02;;;;;;;21.27;15.97;;;;;;;14.25;100.00;96630.16;5013200;28;20467;-76
2021/06/06 03:33:43;;;;;;;20.10;16.48;;;;;;;14.34;100.00;96637.03;5014779;28;20120;-77
2021/06/06 03:36:12;;;;;;;23.17;16.20;;;;;;;14.23;100.00;96632.13;5005211;28;20152;-76
2021/06/06 03:38:38;;;;;;;25.38;17.05;;;;;;;14.23;100.00;96637.41;5015113;28;20021;-77
2021/06/06 03:41:05;;;;;;;20.60;15.40;;;;;;;14.26;100.00;96630.97;5024026;28;20034;-76
2021/06/06 03:43:36;;;;;;;22.80;16.80;;;;;;;14.26;100.00;96631.78;5014471;28;20048;-75
2021/06/06 03:46:03;;;;;;;20.90;14.87;;;;;;;14.24;100.00;96628.47;5012451;28;20350;-79
2021/06/06 03:48:30;;;;;;;21.30;14.80;;;;;;;14.33;100.00;96631.91;5022696;28;20025;-79
2021/06/06 03:50:57;;;;;;;17.45;12.88;;;;;;;14.20;100.00;96629.00;5007809;28;20037;-77
2021/06/06 03:53:25;;;;;;;19.20;13.43;;;;;;;14.25;100.00;96626.66;5029585;28;20032;-77
2021/06/06 03:55:54;;;;;;;18.33;12.40;;;;;;;14.24;100.00;96633.75;5007426;28;20029;-76
2021/06/06 03:58:21;;;;;;;17.70;13.37;;;;;;;14.15;100.00;96624.22;5043418;28;20022;-74
2021/06/06 04:00:49;;;;;;;23.97;13.53;;;;;;;14.22;100.00;96634.94;5038614;28;20541;-74
2021/06/06 04:03:17;;;;;;;20.37;13.80;;;;;;;14.26;100.00;96626.50;5036241;28;20446;-76
2021/06/06 04:05:47;;;;;;;19.30;14.03;;;;;;;14.19;100.00;96624.72;5017718;28;20026;-77
2021/06/06 04:08:20;;;;;;;24.27;14.60;;;;;;;14.23;100.00;96626.00;5019791;28;20030;-77
2021/06/06 04:10:53;;;;;;;20.90;14.52;;;;;;;14.28;100.00;96618.38;5024817;28;20041;-77
2021/06/06 04:13:19;;;;;;;20.97;14.47;;;;;;;14.26;100.00;96620.38;5017935;28;20041;-76
2021/06/06 04:15:46;;;;;;;25.00;14.60;;;;;;;14.25;100.00;96619.56;4999821;28;20037;-77
2021/06/06 04:18:19;;;;;;;21.53;15.03;;;;;;;14.22;100.00;96621.69;5024811;28;20089;-77
2021/06/06 04:20:48;;;;;;;23.38;14.35;;;;;;;14.23;100.00;96621.53;5002601;28;20099;-77
2021/06/06 04:23:16;;;;;;;19.73;13.82;;;;;;;14.21;100.00;96620.06;4998189;28;20540;-75
2021/06/06 04:25:44;;;;;;;20.42;13.23;;;;;;;14.18;100.00;96618.56;5004855;28;20142;-77
2021/06/06 04:28:14;;;;;;;17.98;13.05;;;;;;;14.21;100.00;96617.41;5016082;28;20734;-75
2021/06/06 04:30:42;;;;;;;17.70;12.33;;;;;;;14.15;100.00;96621.56;4989987;28;20507;-77
2021/06/06 04:33:09;;;;;;;16.55;12.35;;;;;;;14.19;100.00;96614.97;4983952;28;20076;-77
2021/06/06 04:35:39;;;;;;;18.60;12.20;;;;;;;14.23;100.00;96616.25;5018705;28;20065;-77
2021/06/06 04:38:09;;;;;;;18.45;12.50;;;;;;;14.29;100.00;96620.03;5009477;28;20022;-77
2021/06/06 04:40:37;;;;;;;18.90;13.48;;;;;;;14.30;100.00;96627.78;5007867;28;20433;-77
2021/06/06 04:43:05;;;;;;;17.52;12.15;;;;;;;14.26;100.00;96613.25;4996087;28;20053;-75
2021/06/06 04:45:31;;;;;;;18.38;12.75;;;;;;;14.24;100.00;96617.88;5005710;28;20038;-78
2021/06/06 04:48:16;;;;;;;16.77;12.35;;;;;;;14.27;100.00;96608.78;4995651;28;20029;-77
2021/06/06 04:50:43;;;;;;;16.67;11.83;;;;;;;14.29;100.00;96607.63;5020476;28;20037;-77
2021/06/06 04:53:09;;;;;;;17.90;12.13;;;;;;;14.35;100.00;96608.75;4995094;28;20564;-77
2021/06/06 04:55:36;;;;;;;16.25;10.48;;;;;;;14.25;100.00;96603.69;5034970;28;20033;-77
2021/06/06 04:58:03;;;;;;;15.13;10.88;;;;;;;14.27;100.00;96606.16;5010750;28;20018;-78
2021/06/06 05:00:35;;;;;;;15.10;10.00;;;;;;;14.28;100.00;96600.66;5011758;28;20051;-77
2021/06/06 05:03:02;;;;;;;14.30;10.70;;;;;;;14.29;100.00;96605.00;5004782;28;20034;-77
2021/06/06 05:05:30;;;;;;;13.30;10.35;;;;;;;14.24;100.00;96607.31;4991260;28;20029;-77
2021/06/06 05:07:59;;;;;;;15.77;9.80;;;;;;;14.26;100.00;96607.97;5014055;28;20791;-77
2021/06/06 05:10:26;;;;;;;13.95;9.82;;;;;;;14.28;100.00;96599.84;5006699;28;20036;-77
2021/06/06 05:12:54;;;;;;;13.80;9.23;;;;;;;14.26;100.00;96604.50;5013304;28;20101;-76
2021/06/06 05:15:24;;;;;;;15.48;10.02;;;;;;;14.28;100.00;96605.97;5017883;28;20154;-77
2021/06/06 05:17:53;;;;;;;13.05;9.02;;;;;;;14.27;100.00;96601.69;5019949;28;20040;-77
2021/06/06 05:20:27;;;;;;;14.03;8.20;;;;;;;14.23;100.00;96610.16;5005927;28;20037;-76
2021/06/06 05:22:52;;;;;;;12.95;9.15;;;;;;;14.27;100.00;96612.25;5015418;28;20072;-77
2021/06/06 05:25:19;;;;;;;12.02;8.10;;;;;;;14.13;100.00;96610.34;4994591;28;20026;-77
2021/06/06 05:27:46;;;;;;;11.27;7.60;;;;;;;14.16;100.00;96604.72;5002543;28;20660;-77
2021/06/06 05:30:18;;;;;;;11.90;7.32;;;;;;;14.15;100.00;96611.84;5010610;28;20040;-77
2021/06/06 05:32:43;;;;;;;11.63;7.40;;;;;;;14.22;100.00;96604.03;5012003;28;20224;-75
2021/06/06 05:35:10;;;;;;;11.20;7.63;;;;;;;14.23;100.00;96610.97;5001115;28;20033;-77
2021/06/06 05:37:35;;;;;;;12.10;8.30;;;;;;;14.21;100.00;96612.94;5001019;28;20061;-77
2021/06/06 05:40:03;;;;;;;12.10;7.13;;;;;;;14.24;100.00;96609.97;5015487;28;20030;-77
2021/06/06 05:42:29;;;;;;;10.98;7.45;;;;;;;14.24;100.00;96619.72;4994035;28;20037;-77
2021/06/06 05:44:55;;;;;;;12.52;7.88;;;;;;;14.26;100.00;96620.38;5016291;28;20032;-77
2021/06/06 05:47:21;;;;;;;12.60;7.77;;;;;;;14.22;100.00;96617.25;5004519;28;20067;-77
2021/06/06 05:49:46;;;;;;;12.07;7.90;;;;;;;14.27;100.00;96622.84;4996185;28;20407;-76
2021/06/06 05:52:18;;;;;;;13.10;7.53;;;;;;;14.30;100.00;96619.84;5001787;28;20060;-76
2021/06/06 05:54:44;;;;;;;11.90;7.68;;;;;;;14.43;100.00;96621.13;5020372;28;20033;-77
2021/06/06 05:57:10;;;;;;;12.88;7.32;;;;;;;14.29;100.00;96618.22;4985883;28;20030;-78
2021/06/06 05:59:35;;;;;;;18.20;8.93;;;;;;;14.42;100.00;96625.59;5006937;28;20086;-78
2021/06/06 06:02:01;;;;;;;13.45;8.73;;;;;;;14.38;100.00;96618.97;5013627;28;20078;-77
2021/06/06 06:04:27;;;;;;;14.13;7.93;;;;;;;14.33;100.00;96624.81;4996309;28;20042;-77
2021/06/06 06:06:52;;;;;;;15.52;7.90;;;;;;;14.36;100.00;96618.34;5017477;28;20025;-77
2021/06/06 06:09:18;;;;;;;13.63;8.15;;;;;;;14.42;100.00;96615.00;5015940;28;20728;-78
2021/06/06 06:11:44;;;;;;;16.77;9.18;;;;;;;14.41;100.00;96616.00;5019567;28;20024;-77
2021/06/06 06:14:10;;;;;;;13.35;7.88;;;;;;;14.34;100.00;96618.50;5009149;28;20041;-76
2021/06/06 06:16:37;;;;;;;16.13;9.68;;;;;;;14.55;100.00;96625.03;5002006;28;20018;-76
2021/06/06 06:19:06;;;;;;;17.65;9.13;;;;;;;14.46;100.00;96626.88;5011502;28;20042;-76
2021/06/06 06:21:34;;;;;;;17.45;9.60;;;;;;;14.47;100.00;96619.78;4995214;28;20036;-75
2021/06/06 06:24:01;;;;;;;17.65;10.07;;;;;;;14.46;100.00;96626.88;5010135;28;20065;-76
2021/06/06 06:26:28;;;;;;;19.20;10.60;;;;;;;14.41;100.00;96625.75;4998995;28;20392;-77
2021/06/06 06:29:19;;;;;;;13.73;7.63;;;;;;;14.37;100.00;96627.91;5001410;28;20050;-77
2021/06/06 06:32:04;;;;;;;19.02;10.10;;;;;;;14.39;100.00;96624.13;4998258;28;20030;-78
2021/06/06 06:34:34;;;;;;;20.65;11.38;;;;;;;14.46;100.00;96631.38;5012548;28;20025;-78
2021/06/06 06:37:01;;;;;;;17.50;9.82;;;;;;;14.38;100.00;96627.75;4998845;28;20169;-79
2021/06/06 06:39:27;;;;;;;19.35;9.40;;;;;;;14.43;100.00;96629.88;4994725;28;20045;-77
2021/06/06 06:41:53;;;;;;;17.88;10.07;;;;;;;14.58;100.00;96629.97;5010499;28;20038;-78
2021/06/06 06:44:19;;;;;;;16.55;8.13;;;;;;;14.69;100.00;96626.09;5002340;28;20038;-77
2021/06/06 06:46:47;;;;;;;14.43;7.90;;;;;;;14.72;100.00;96623.97;5002918;28;20117;-77
2021/06/06 06:49:13;;;;;;;16.15;9.43;;;;;;;14.73;100.00;96627.44;5013475;28;20176;-78
2021/06/06 06:51:39;;;;;;;9.93;5.90;;;;;;;14.67;100.00;96628.13;4996213;28;20041;-77
2021/06/06 06:54:04;;;;;;;9.13;5.35;;;;;;;14.58;100.00;96629.97;4995057;28;20035;-76
2021/06/06 06:56:32;;;;;;;9.20;4.80;;;;;;;14.61;100.00;96632.28;5017603;28;20517;-77
2021/06/06 06:58:58;;;;;;;8.25;4.55;;;;;;;14.70;100.00;96631.25;5018005;28;20029;-81
2021/06/06 07:01:24;;;;;;;7.25;4.30;;;;;;;14.68;100.00;96643.00;5041677;28;20072;-78
2021/06/06 07:03:51;;;;;;;7.45;4.43;;;;;;;14.63;100.00;96640.88;4991277;28;20484;-81
2021/06/06 07:06:18;;;;;;;6.35;3.78;;;;;;;14.57;100.00;96639.75;5013184;28;20037;-78
2021/06/06 07:08:45;;;;;;;6.78;3.63;;;;;;;14.56;100.00;96643.41;5015815;28;20108;-77
2021/06/06 07:11:16;;;;;;;6.65;3.72;;;;;;;14.66;100.00;96637.91;5005474;28;20416;-81
2021/06/06 07:13:42;;;;;;;4.88;2.80;;;;;;;14.63;100.00;96640.88;4995153;28;20036;-78
2021/06/06 07:16:09;;;;;;;6.57;3.63;;;;;;;14.77;100.00;96640.13;5004700;28;20026;-78
2021/06/06 07:18:35;;;;;;;5.53;3.25;;;;;;;14.81;100.00;96635.31;5018223;28;20032;-78
2021/06/06 07:21:06;;;;;;;5.65;3.20;;;;;;;14.86;100.00;96640.91;4993649;28;20117;-77
2021/06/06 07:23:33;;;;;;;3.88;2.47;;;;;;;14.66;100.00;96647.66;5017628;28;20034;-80
2021/06/06 07:26:03;;;;;;;6.00;2.95;;;;;;;14.79;100.00;96635.50;4997722;28;20064;-78
2021/06/06 07:28:29;;;;;;;3.97;2.05;;;;;;;14.80;100.00;96644.25;4993535;28;20043;-78
2021/06/06 07:30:59;;;;;;;3.33;2.15;;;;;;;14.72;100.00;96653.09;5013486;28;20021;-78
2021/06/06 07:33:34;;;;;;;4.68;2.10;;;;;;;14.67;100.00;96647.47;5006307;28;20042;-77
2021/06/06 07:36:02;;;;;;;2.45;1.67;;;;;;;14.68;100.00;96648.28;5010442;28;20038;-78
2021/06/06 07:38:28;;;;;;;2.17;1.70;;;;;;;14.78;100.00;96643.59;5022881;28;20038;-77
2021/06/06 07:40:55;;;;;;;1.83;1.30;;;;;;;14.71;100.00;96647.94;5019940;28;20826;-77
2021/06/06 07:43:22;;;;;;;3.55;1.50;;;;;;;14.79;100.00;96637.31;5001262;28;20108;-79
2021/06/06 07:45:48;;;;;;;4.95;2.80;;;;;;;14.85;100.00;96632.16;5013174;28;20642;-77
2021/06/06 07:48:14;;;;;;;3.72;1.73;;;;;;;14.70;100.00;96633.88;5015006;28;20033;-78
2021/06/06 07:50:46;;;;;;;2.60;1.35;;;;;;;14.71;100.00;96643.47;5001627;28;20037;-77
2021/06/06 07:53:13;;;;;;;2.63;1.50;;;;;;;14.80;100.00;96639.78;5001153;28;20038;-77
2021/06/06 07:55:39;;;;;;;1.70;1.17;;;;;;;14.78;100.00;96640.94;5027442;28;20041;-79
2021/06/06 07:58:05;;;;;;;5.25;1.60;;;;;;;14.92;100.00;96631.41;4988238;28;20510;-79
2021/06/06 08:00:40;;;;;;;6.22;4.13;;;;;;;14.81;100.00;96630.81;5027748;28;20026;-78
2021/06/06 08:03:07;;;;;;;8.80;4.43;;;;;;;14.88;100.00;96633.59;5010503;28;20455;-79
2021/06/06 08:05:35;;;;;;;19.88;14.07;;;;;;;14.98;100.00;96638.66;5015074;28;20513;-78
2021/06/06 08:08:03;;;;;;;3.85;1.90;;;;;;;14.78;100.00;96641.78;5012338;28;20183;-79
2021/06/06 08:10:30;;;;;;;2.47;0.80;;;;;;;14.78;100.00;96633.00;5010326;28;20096;-77
2021/06/06 08:12:56;;;;;;;13.38;6.65;;;;;;;14.92;100.00;96639.34;5018359;28;20033;-77
2021/06/06 08:15:23;;;;;;;8.32;4.20;;;;;;;14.81;100.00;96636.13;5017133;28;20026;-77
2021/06/06 08:17:50;;;;;;;2.60;1.75;;;;;;;14.81;100.00;96638.78;5010574;28;20042;-77
2021/06/06 08:20:23;;;;;;;2.42;1.40;;;;;;;14.82;100.00;96634.28;5011062;28;20022;-77
2021/06/06 08:22:49;;;;;;;4.35;1.60;;;;;;;14.75;100.00;96631.53;5020360;28;20037;-77
2021/06/06 08:25:15;;;;;;;4.53;1.70;;;;;;;14.77;100.00;96634.84;5008516;28;20542;-79
2021/06/06 08:27:43;;;;;;;3.40;1.88;;;;;;;14.77;100.00;96637.47;5026324;28;20025;-80
2021/06/06 08:30:16;;;;;;;4.32;1.83;;;;;;;14.88;100.00;96633.59;5034687;28;20006;-81
2021/06/06 08:32:42;;;;;;;;;;;;;;;14.91;100.00;96630.59;5019014;28;20030;-78
2021/06/06 08:35:08;;;;;;;2.85;1.90;;;;;;;14.97;100.00;96629.91;5038460;28;19919;-77
2021/06/06 08:37:36;;;;;;;7.78;2.15;;;;;;;15.01;100.00;96631.19;5000843;28;20029;-76
2021/06/06 08:40:04;;;;;;;11.63;2.17;;;;;;;15.07;100.00;96627.00;5015895;28;20031;-77
2021/06/06 08:42:42;;;;;;;5.40;2.67;;;;;;;15.06;100.00;96628.84;4993223;28;20784;-78
2021/06/06 08:45:33;;;;;;;3.17;1.60;;;;;;;14.80;100.00;96623.91;5008993;28;20033;-76
2021/06/06 08:48:02;;;;;;;6.47;3.60;;;;;;;15.07;100.00;96624.38;5029205;28;20041;-78
2021/06/06 08:50:34;;;;;;;2.72;1.77;;;;;;;15.07;100.00;96622.53;5019308;28;20037;-77
2021/06/06 08:53:28;;;;;;;6.30;1.50;;;;;;;15.16;100.00;96622.50;4998864;28;20049;-77
2021/06/06 08:56:01;;;;;;;2.88;1.45;;;;;;;14.90;100.00;96633.44;5005717;28;20037;-77
2021/06/06 08:58:48;;;;;;;2.78;1.52;;;;;;;14.93;100.00;96630.44;4990841;28;20030;-77
2021/06/06 09:01:45;;;;;;;2.20;1.35;;;;;;;15.07;100.00;96634.97;5004985;28;20030;-77
2021/06/06 09:04:28;;;;;;;3.13;1.70;;;;;;;15.04;100.00;96630.84;5020933;28;20041;-76
2021/06/06 09:07:00;;;;;;;3.30;1.95;;;;;;;15.01;100.00;96636.47;5005668;28;20037;-77
2021/06/06 09:09:52;;;;;;;3.05;2.00;;;;;;;15.12;100.00;96634.41;5018564;28;20034;-76
2021/06/06 09:12:21;;;;;;;4.18;1.75;;;;;;;15.05;100.00;96636.94;5009043;28;20076;-77
2021/06/06 09:14:50;;;;;;;4.53;2.95;;;;;;;15.13;100.00;96636.09;5002307;28;20031;-77
2021/06/06 09:17:19;;;;;;;3.75;2.33;;;;;;;15.04;100.00;96630.00;4996733;28;20482;-77
2021/06/06 09:19:51;;;;;;;2.45;1.70;;;;;;;15.11;100.00;96630.94;5013376;28;20038;-77
2021/06/06 09:22:40;;;;;;;2.92;1.50;;;;;;;15.09;100.00;96633.78;4992582;28;20042;-78
2021/06/06 09:25:08;;;;;;;2.40;1.38;;;;;;;15.14;100.00;96632.44;4998857;28;20057;-77
2021/06/06 09:27:34;;;;;;;3.00;1.77;;;;;;;15.23;100.00;96634.00;5017315;28;20026;-77
2021/06/06 09:30:03;;;;;;;4.00;1.98;;;;;;;15.23;100.00;96639.31;5005964;28;20037;-77
2021/06/06 09:32:30;;;;;;;1.92;1.38;;;;;;;15.09;100.00;96636.44;4987890;28;20487;-78
2021/06/06 09:35:19;;;;;;;2.40;1.40;;;;;;;14.97;100.00;96634.38;4994934;28;20038;-77
2021/06/06 09:38:00;;;;;;;2.28;1.33;;;;;;;15.14;100.00;96646.50;4992915;28;20045;-78
2021/06/06 09:40:31;;;;;;;1.77;1.20;;;;;;;15.34;100.00;96646.81;5014142;28;20060;-79
2021/06/06 09:42:57;;;;;;;2.35;1.48;;;;;;;15.54;100.00;96644.50;5011279;28;20034;-78
2021/06/06 09:45:27;;;;;;;2.20;1.48;;;;;;;15.49;100.00;96641.53;4989687;28;20030;-78
2021/06/06 09:48:16;;;;;;;2.83;1.55;;;;;;;15.56;100.00;96640.66;4995010;28;20034;-77
2021/06/06 09:50:46;;;;;;;3.08;1.33;;;;;;;15.56;100.00;96639.84;5019127;28;20749;-78
2021/06/06 09:53:19;;;;;;;2.42;1.58;;;;;;;15.53;100.00;96648.16;5040944;28;20872;-78
2021/06/06 09:55:46;;;;;;;2.45;1.67;;;;;;;15.63;100.00;96645.25;5007138;28;20059;-77
2021/06/06 09:58:24;;;;;;;2.72;1.70;;;;;;;15.55;100.00;96638.19;5001431;28;20034;-77
2021/06/06 10:00:52;;;;;;;2.45;1.60;;;;;;;15.60;100.00;96635.81;5001947;28;20033;-77
2021/06/06 10:03:32;;;;;;;6.03;2.10;;;;;;;15.63;100.00;96639.94;4997658;28;20037;-77
2021/06/06 10:06:30;;;;;;;3.90;1.50;;;;;;;15.66;100.00;96635.13;4994761;28;20060;-77
2021/06/06 10:09:09;;;;;;;4.50;2.17;;;;;;;15.73;100.00;96640.53;5015061;28;20120;-78
2021/06/06 10:11:58;;;;;;;4.47;1.80;;;;;;;15.92;100.00;96633.84;5007229;28;20095;-77
2021/06/06 10:14:48;;;;;;;4.25;1.73;;;;;;;16.06;100.00;96635.69;5017354;28;20034;-78
2021/06/06 10:17:18;;;;;;;5.88;2.42;;;;;;;16.02;100.00;96631.75;5007444;28;20034;-77
2021/06/06 10:20:07;;;;;;;3.45;1.85;;;;;;;16.16;100.00;96630.94;5014370;28;20040;-76
2021/06/06 10:22:40;;;;;;;9.40;6.47;;;;;;;16.16;100.00;96628.28;4984444;28;20072;-78
2021/06/06 10:25:11;;;;;;;7.22;4.90;;;;;;;16.30;100.00;96634.59;4990564;28;20059;-78
2021/06/06 10:27:49;;;;;;;5.20;2.75;;;;;;;16.27;100.00;96632.28;5014801;28;20391;-78
2021/06/06 10:30:22;;;;;;;6.38;3.83;;;;;;;16.59;100.00;96628.38;5009099;28;20037;-79
2021/06/06 10:32:54;;;;;;;4.32;2.65;;;;;;;16.78;100.00;96629.66;4995452;28;20060;-78
2021/06/06 10:35:25;;;;;;;6.97;2.92;;;;;;;17.02;100.00;96632.94;4999180;28;20053;-79
2021/06/06 10:37:54;;;;;;;3.13;1.90;;;;;;;17.05;99.06;96635.22;5016020;28;20042;-79
2021/06/06 10:40:37;;;;;;;1.67;1.10;;;;;;;17.18;98.74;96628.19;5000507;28;20034;-77
2021/06/06 10:43:26;;;;;;;3.13;1.48;;;;;;;17.22;98.61;96622.50;5009571;28;20030;-77
2021/06/06 10:46:19;;;;;;;2.22;1.25;;;;;;;17.07;99.29;96625.22;4989583;28;20045;-76
2021/06/06 10:48:45;;;;;;;3.37;1.57;;;;;;;17.13;98.95;96627.09;4953166;28;20045;-77
2021/06/06 10:51:33;;;;;;;2.42;1.50;;;;;;;17.05;97.32;96630.72;5019737;28;20475;-76
2021/06/06 10:54:22;;;;;;;1.95;0.90;;;;;;;17.03;97.37;96622.13;5012031;28;20057;-77
2021/06/06 10:56:54;;;;;;;1.92;1.05;;;;;;;16.88;97.79;96630.16;5019697;28;20033;-77
2021/06/06 11:00:10;;;;;;;3.00;1.35;;;;;;;17.07;96.56;96628.72;5019629;28;20042;-78
2021/06/06 11:02:57;;;;;;;1.58;1.10;;;;;;;17.08;96.41;96618.91;4964745;28;20124;-80
2021/06/06 11:05:34;;;;;;;1.20;0.93;;;;;;;17.01;96.65;96632.13;5003067;28;20041;-80
2021/06/06 11:08:00;;;;;;;2.25;1.20;;;;;;;17.32;97.80;96620.34;5014952;28;20129;-78
2021/06/06 11:10:26;;;;;;;2.30;1.50;;;;;;;17.20;97.55;96628.84;5029919;28;20056;-78
2021/06/06 11:12:54;;;;;;;2.00;1.25;;;;;;;17.13;97.73;96621.78;5013496;28;20085;-77
2021/06/06 11:15:35;;;;;;;2.83;1.38;;;;;;;16.96;97.47;96621.22;5021409;28;20056;-78
2021/06/06 11:18:09;;;;;;;4.80;2.00;;;;;;;16.87;97.52;96623.22;5017101;28;20034;-80
2021/06/06 11:20:49;;;;;;;2.60;1.50;;;;;;;16.70;98.78;96617.28;5006080;28;20042;-77
2021/06/06 11:23:21;;;;;;;2.40;1.70;;;;;;;16.61;98.64;96623.72;5012965;28;20037;-77
2021/06/06 11:25:51;;;;;;;4.43;2.42;;;;;;;16.66;99.54;96625.78;5003999;28;20033;-77
2021/06/06 11:28:22;;;;;;;4.22;2.25;;;;;;;16.54;100.00;96620.16;4990717;28;20062;-77
2021/06/06 11:30:49;;;;;;;3.83;2.33;;;;;;;16.66;99.47;96617.81;5007016;28;20100;-77
2021/06/06 11:34:05;;;;;;;3.70;2.20;;;;;;;16.62;100.00;96620.03;5008824;28;20033;-76
2021/06/06 11:36:33;;;;;;;7.22;4.75;;;;;;;16.58;99.69;96618.78;4925733;29;20050;-77
2021/06/06 11:39:18;;;;;;;7.78;5.15;;;;;;;16.44;99.66;96616.97;4937872;28;20493;-77